Terminal Aerodrome Forecast
Issued by NWS

Home | Current Version | Previous Version | Text Only | Print | Product List | Glossary Off
Versions: 1 2 3 4 5 6 7 8 9 10 11 12 13 14 15 16 17 18 19 20 21 22 23 24 25 26 27 28 29 30 31 32 33 34 35

000
FTUS43 KLOT 262200 AAC
TAFORD
TAF AMD
KORD 262209Z 2622/2724 VRB05KT P6SM FEW025 BKN150
     FM270500 VRB02KT 4SM BR FEW015 BKN100
     FM271300 28009KT P6SM SCT150
     FM271600 29013G21KT P6SM BKN045
     FM271900 29017G26KT P6SM BKN045=

USA.gov is the U.S. government's official web portal to all federal, state and local government web resources and services.